Latest Coastal Weather Observations for Wadeye (Port Keats)

IDD60701

Issued at 4:41 am CST Saturday 10 December 2016 (issued every 10 minutes, with the page automatically refreshed every 10 minutes)

About coastal observations | Map of coastal stations | Coastal observations for NT | Marine services | Other Formats
Station Details ID: 014948 Name: PORT KEATS AIRPORT Lat: -14.25 Lon: 129.53 Height: 28.0 m
Data from the previous 72 hours. | See also: Recent months at Wadeye (Port Keats)
Date/Time
CST
Temp
°C
Wind Pressure Rain since
9am
mm
Weather Cloud Vis
km
Sea
Height
m
Swell
Dir  Spd
kts
Gust
kts
hPa Trend Height
m
Period
s
Dir
10/04:30am 26.6 CALM 0 0 1006.9 - 6.2 - - - - - - -
10/04:00am 26.0 SE 1 3 1006.9 - 6.2 - - - - - - -
10/03:30am 26.5 CALM 0 0 1006.9 - 6.2 - - - - - - -
10/03:00am 26.4 CALM 0 0 1006.6 - 6.2 - - - - - - -
10/02:30am 26.2 CALM 0 0 1006.4 - 6.2 - - - - - - -
10/02:00am 26.3 CALM 0 0 1006.7 - 6.2 - - - - - - -
10/01:30am 26.0 CALM 0 0 1006.9 - 6.2 - - - - - - -
10/01:00am 25.9 CALM 0 0 1007.3 - 6.2 - - - - - - -
10/12:30am 25.7 CALM 0 0 1007.8 - 6.2 - - - - - - -
10/12:00am 25.5 SSW 1 3 1008.1 - 6.2 - - - - - - -
 
Date/Time
CST
Temp
°C
Wind Pressure Rain since
9am
mm
Weather Cloud Vis
km
Sea
Height
m
Swell
Dir  Spd
kts
Gust
kts
hPa Trend Height
m
Period
s
Dir
09/11:30pm 26.0 CALM 0 0 1008.1 - 6.2 - - - - - - -
09/11:00pm 26.6 CALM 0 0 1008.3 - 6.2 - - - - - - -
09/10:30pm 26.5 ENE 2 4 1008.1 - 6.2 - - - - - - -
09/10:00pm 26.0 ESE 3 4 1007.7 - 6.2 - - - - - - -
09/09:30pm 25.9 CALM 0 0 1007.1 - 6.2 - - - - - - -
09/09:00pm 25.3 CALM 0 0 1006.7 - 6.2 - - - - - - -
09/08:30pm 25.1 SSW 1 4 1006.6 - 6.2 - - - - - - -
09/08:00pm 25.5 CALM 0 0 1006.0 - 6.2 - - - - - - -
09/07:30pm 25.4 W 5 9 1005.5 - 6.2 - - - - - - -
09/07:00pm 26.0 SE 16 34 1007.1 - 0.8 - - - - - - -
09/06:59pm 26.4 SE 15 34 1007.1 - 0.6 - - - - - - -
09/06:55pm 31.7 SSE 7 26 1006.8 - 0.0 - - - - - - -
09/06:30pm 32.6 W 3 5 1005.2 - 0.0 - - - - - - -
09/06:00pm 32.3 WNW 6 8 1004.5 - 0.0 - - - - - - -
09/05:30pm 33.1 W 6 11 1004.2 - 0.0 - - - - - - -
09/05:00pm 32.6 WNW 7 9 1004.3 - 0.0 - - - - - - -
09/04:30pm 33.0 WNW 7 11 1004.3 - 0.0 - - - - - - -
09/04:00pm 33.8 NW 10 14 1004.5 - 0.0 - - - - - - -
09/03:30pm 34.1 WNW 5 8 1005.0 - 0.0 - - - - - - -
09/03:00pm 33.7 WNW 6 9 1005.2 - 0.0 - - - - - - -
09/02:30pm 34.1 WNW 6 9 1005.6 - 0.0 - - - - - - -
09/02:00pm 33.7 W 5 8 1005.7 - 0.0 - - - - - - -
09/01:30pm 33.6 WNW 5 7 1006.4 - 0.0 - - - - - - -
09/01:00pm 33.3 NW 5 8 1006.8 - 0.0 - - - - - - -
09/12:30pm 31.5 W 6 14 1007.4 - 0.0 - - - - - - -
09/12:00pm 31.2 W 5 14 1007.9 - 0.0 - - - - - - -
09/11:30am 32.1 SW 6 9 1008.0 - 0.0 - - - - - - -
09/11:00am 33.3 SW 3 7 1008.3 - 0.0 - - - - - - -
09/10:30am 33.4 NW 6 9 1008.2 - 0.0 - - - - - - -
09/10:00am 31.9 NNW 8 11 1008.3 - 0.0 - - - - - - -
09/09:30am 31.8 WNW 4 6 1008.3 - 0.0 - - - - - - -
09/09:00am 31.9 WNW 6 8 1008.3 - 0.0 - - - - - - -
09/08:30am 31.8 NE 3 4 1008.4 - 0.0 - - - - - - -
09/08:00am 30.4 ENE 2 4 1007.7 - 0.0 - - - - - - -
09/07:30am 29.8 CALM 0 0 1007.6 - 0.0 - - - - - - -
09/07:00am 28.7 CALM 0 2 1007.4 - 0.0 - - - - - - -
09/06:30am 28.4 CALM 0 0 1006.7 - 0.0 - - - - - - -
09/06:00am 28.4 CALM 0 0 1006.3 - 0.0 - - - - - - -
09/05:30am 28.3 CALM 0 0 1005.8 - 0.0 - - - - - - -
09/05:00am 28.3 CALM 0 1 1005.5 - 0.0 - - - - - - -
09/04:30am 28.4 CALM 0 0 1005.2 - 0.0 - - - - - - -
09/04:00am 28.3 CALM 0 0 1005.0 - 0.0 - - - - - - -
09/03:30am 28.2 SW 1 3 1005.0 - 0.0 - - - - - - -
09/03:00am 28.9 CALM 0 0 1004.9 - 0.0 - - - - - - -
09/02:30am 29.0 W 2 4 1004.8 - 0.0 - - - - - - -
09/02:00am 29.5 NW 4 5 1004.8 - 0.0 - - - - - - -
09/01:30am 29.5 NNW 3 5 1005.1 - 0.0 - - - - - - -
09/01:00am 29.3 WNW 3 5 1005.3 - 0.0 - - - - - - -
09/12:30am 29.5 NW 1 4 1005.4 - 0.0 - - - - - - -
09/12:00am 29.4 CALM 0 0 1005.6 - 0.0 - - - - - - -
 
Date/Time
CST
Temp
°C
Wind Pressure Rain since
9am
mm
Weather Cloud Vis
km
Sea
Height
m
Swell
Dir  Spd
kts
Gust
kts
hPa Trend Height
m
Period
s
Dir
08/11:30pm 29.8 CALM 0 0 1005.8 - 0.0 - - - - - - -
08/11:00pm 30.1 WNW 4 6 1005.5 - 0.0 - - - - - - -
08/10:30pm 30.4 NW 5 6 1005.5 - 0.0 - - - - - - -
08/10:00pm 30.2 WNW 3 5 1005.4 - 0.0 - - - - - - -
08/09:30pm 30.6 WNW 4 6 1005.2 - 0.0 - - - - - - -
08/09:00pm 30.9 NW 5 7 1005.0 - 0.0 - - - - - - -
08/08:30pm 31.0 NNW 6 8 1004.8 - 0.0 - - - - - - -
08/08:00pm 31.0 WNW 4 7 1004.8 - 0.0 - - - - - - -
08/07:30pm 31.4 NW 5 8 1004.7 - 0.0 - - - - - - -
08/07:00pm 31.7 WNW 4 6 1004.2 - 0.0 - - - - - - -
08/06:30pm 32.5 NW 7 10 1003.7 - 0.0 - - - - - - -
08/06:00pm 33.7 NW 7 11 1003.7 - 0.0 - - - - - - -
08/05:30pm 34.4 W 6 9 1003.5 - 0.0 - - - - - - -
08/05:00pm 34.4 NW 8 11 1003.5 - 0.0 - - - - - - -
08/04:30pm 34.5 W 7 12 1003.5 - 0.0 - - - - - - -
08/04:00pm 34.6 NW 9 15 1003.7 - 0.0 - - - - - - -
08/03:30pm 35.5 NW 10 16 1003.7 - 0.0 - - - - - - -
08/03:00pm 35.5 WNW 8 13 1004.1 - 0.0 - - - - - - -
08/02:30pm 35.1 NW 10 15 1004.3 - 0.0 - - - - - - -
08/02:00pm 34.7 NW 9 15 1004.7 - 0.0 - - - - - - -
08/01:30pm 34.8 NW 11 15 1005.2 - 0.0 - - - - - - -
08/01:00pm 34.5 NW 9 14 1005.6 - 0.0 - - - - - - -
08/12:30pm 34.7 NW 8 13 1006.0 - 0.0 - - - - - - -
08/12:00pm 34.3 NNW 8 11 1006.3 - 0.0 - - - - - - -
08/11:30am 33.5 NW 7 11 1006.9 - 0.0 - - - - - - -
08/11:00am 33.7 NNW 7 10 1007.1 - 0.0 - - - - - - -
08/10:30am 33.5 NNW 7 10 1007.1 - 0.0 - - - - - - -
08/10:00am 33.6 NNW 8 10 1007.2 - 0.0 - - - - - - -
08/09:30am 32.6 WNW 6 9 1007.3 - 0.0 - - - - - - -
08/09:00am 32.1 NW 6 9 1007.1 - 0.0 - - - - - - -
08/08:30am 30.8 NW 4 8 1007.1 - 0.0 - - - - - - -
08/08:00am 30.4 ENE 4 5 1007.2 - 0.0 - - - - - - -
08/07:30am 28.9 ENE 6 7 1007.2 - 0.0 - - - - - - -
08/07:00am 28.4 CALM 0 0 1006.7 - 0.0 - - - - - - -
08/06:30am 27.1 CALM 0 0 1006.1 - 0.0 - - - - - - -
08/06:00am 27.0 S 1 3 1005.8 - 0.0 - - - - - - -
08/05:30am 27.5 CALM 0 1 1005.4 - 0.0 - - - - - - -
08/05:00am 28.1 CALM 0 0 1004.9 - 0.0 - - - - - - -
08/04:30am 29.0 WNW 1 4 1004.8 - 0.0 - - - - - - -
08/04:00am 28.7 W 3 4 1004.5 - 0.0 - - - - - - -
08/03:30am 29.1 NW 4 6 1004.5 - 0.0 - - - - - - -
08/03:00am 28.8 WNW 4 6 1004.7 - 0.0 - - - - - - -
08/02:30am 29.1 NW 3 5 1005.1 - 0.0 - - - - - - -
08/02:00am 28.8 WNW 3 4 1005.3 - 0.0 - - - - - - -
08/01:30am 29.1 WNW 3 5 1005.7 - 0.0 - - - - - - -
08/01:00am 29.1 WNW 3 5 1006.1 - 0.0 - - - - - - -
08/12:30am 29.2 WNW 3 4 1006.7 - 0.0 - - - - - - -
08/12:00am 29.6 W 3 4 1007.0 - 0.0 - - - - - - -
 
Date/Time
CST
Temp
°C
Wind Pressure Rain since
9am
mm
Weather Cloud Vis
km
Sea
Height
m
Swell
Dir  Spd
kts
Gust
kts
hPa Trend Height
m
Period
s
Dir
07/11:30pm 30.2 NW 5 8 1007.0 - 0.0 - - - - - - -
07/11:00pm 30.3 NW 5 7 1007.3 - 0.0 - - - - - - -
07/10:30pm 30.1 NW 4 6 1007.0 - 0.0 - - - - - - -
07/10:00pm 30.4 NNW 5 6 1006.8 - 0.0 - - - - - - -
07/09:30pm 30.4 NW 4 6 1006.5 - 0.0 - - - - - - -
07/09:00pm 30.3 NW 4 7 1006.5 - 0.0 - - - - - - -
07/08:30pm 30.7 NNW 5 6 1006.0 - 0.0 - - - - - - -
07/08:00pm 31.0 NNW 4 6 1005.5 - 0.0 - - - - - - -
07/07:30pm 31.1 NW 4 6 1005.3 - 0.0 - - - - - - -
07/07:00pm 31.7 NW 7 9 1005.0 - 0.0 - - - - - - -
07/06:30pm 32.5 WNW 6 8 1004.8 - 0.0 - - - - - - -
07/06:00pm 32.8 WNW 6 9 1004.5 - 0.0 - - - - - - -
07/05:30pm 33.4 NW 7 9 1004.4 - 0.0 - - - - - - -
07/05:00pm 33.6 WNW 8 11 1004.3 - 0.0 - - - - - - -
07/04:30pm 33.8 WNW 7 11 1004.5 - 0.0 - - - - - - -
07/04:00pm 34.3 WNW 8 10 1004.9 - 0.0 - - - - - - -
07/03:30pm 34.4 WNW 7 11 1004.9 - 0.0 - - - - - - -
07/03:00pm 33.8 WNW 7 10 1005.2 - 0.0 - - - - - - -
07/02:30pm 34.3 NW 8 12 1005.4 - 0.0 - - - - - - -
07/02:00pm 34.2 NW 8 12 1005.6 - 0.0 - - - - - - -
07/01:30pm 34.1 WNW 7 12 1006.4 - 0.0 - - - - - - -
07/01:00pm 34.2 NW 9 13 1006.8 - 0.0 - - - - - - -
07/12:30pm 33.7 WNW 7 11 1007.0 - 0.0 - - - - - - -
07/12:00pm 33.2 WNW 7 10 1007.8 - 0.0 - - - - - - -
07/11:30am 33.4 WNW 7 11 1008.1 - 0.0 - - - - - - -
07/11:00am 32.5 WNW 7 10 1008.7 - 0.0 - - - - - - -
07/10:30am 33.0 WNW 5 6 1009.3 - 0.0 - - - - - - -
07/10:00am 32.8 NNW 3 7 1009.3 - 0.0 - - - - - - -
07/09:30am 32.2 WNW 3 6 1009.3 - 0.0 - - - - - - -
07/09:00am 31.7 NW 5 7 1009.3 - 0.2 - - - - - - -
07/08:30am 31.7 WNW 4 7 1009.2 - 0.2 - - - - - - -
07/08:00am 31.0 NW 5 7 1008.8 - 0.2 - - - - - - -
07/07:30am 30.3 E 1 4 1008.7 - 0.2 - - - - - - -
07/07:00am 29.5 CALM 0 1 1008.5 - 0.2 - - - - - - -
07/06:30am 28.7 WNW 1 3 1008.2 - 0.2 - - - - - - -
07/06:00am 28.8 W 2 4 1007.9 - 0.2 - - - - - - -
07/05:30am 29.1 W 5 7 1007.6 - 0.2 - - - - - - -
07/05:00am 29.3 WNW 5 8 1007.4 - 0.2 - - - - - - -

Other Formats:

Comma delimited format used in spreadsheet applications
http://www.bom.gov.au/fwo/IDD60701/IDD60701.95111.axf

JavaScript Object Notation format (JSON) in row-major order
http://www.bom.gov.au/fwo/IDD60701/IDD60701.95111.json